FW8874 Weather Reports


time (UTC)temp
F
wind
direction
speed
knots
gust
knots
rain 1hr
in
rain 24hr
in
rain mn
in
humidity
%
barometer
mb
20260506221530 45 0 0.0 0.0 0.00 0.00 0.00 76 1015.1
20260506220035 46 0 0.0 0.9 0.00 0.00 0.00 76 1014.9
20260506214529 46 0 0.0 0.0 0.00 0.00 0.00 75 1014.9
20260506213033 47 0 0.0 0.9 0.00 0.00 0.00 73 1015.0
20260506211530 47 0 0.0 1.7 0.00 0.00 0.00 72 1015.0
20260506210047 48 0 0.0 1.7 0.00 0.00 0.00 71 1014.8
20260506204530 49 30 0.0 1.7 0.00 0.00 0.00 70 1014.7
20260506203031 50 21 0.0 1.7 0.00 0.00 0.00 70 1014.7
20260506201530 50 0 0.0 1.7 0.00 0.00 0.00 70 1014.6
20260506200034 50 78 0.0 1.7 0.00 0.00 0.00 69 1014.4
20260506194532 51 0 0.0 1.7 0.00 0.00 0.00 68 1014.4
20260506193036 51 0 0.0 2.6 0.00 0.00 0.00 67 1014.1
20260506191530 51 52 0.0 4.3 0.00 0.00 0.00 67 1014.1
20260506190033 52 324 0.0 3.5 0.00 0.00 0.00 67 1014.1
20260506184537 52 322 0.0 2.6 0.00 0.00 0.00 68 1014.0
20260506183030 52 318 0.9 3.5 0.00 0.00 0.00 67 1013.9
20260506181539 53 23 0.9 3.5 0.00 0.00 0.00 66 1013.8
20260506180030 53 326 0.9 4.3 0.00 0.00 0.00 64 1013.5
20260506174535 54 25 0.9 5.2 0.00 0.00 0.00 63 1013.3
20260506173032 53 300 0.0 2.6 0.00 0.00 0.00 64 1013.3
20260506171535 53 309 0.0 4.3 0.00 0.00 0.00 65 1013.3
20260506170037 53 345 0.9 4.3 0.00 0.00 0.00 64 1013.3
20260506164546 54 32 2.6 6.1 0.00 0.00 0.00 62 1013.1
20260506163035 54 50 2.6 6.1 0.00 0.00 0.00 63 1013.0
20260506161530 55 65 2.6 6.1 0.00 0.00 0.00 61 1012.9
20260506160034 54 66 0.9 4.3 0.00 0.00 0.00 62 1013.0
20260506154533 54 347 1.7 5.2 0.00 0.00 0.00 62 1013.0
20260506153032 55 302 1.7 7.0 0.00 0.00 0.00 60 1013.0
20260506151533 55 282 2.6 7.8 0.00 0.00 0.00 57 1013.1
20260506150030 55 38 3.5 9.6 0.00 0.00 0.00 58 1013.1
20260506144530 57 58 2.6 9.6 0.00 0.00 0.00 58 1013.2
20260506143037 55 316 1.7 7.0 0.00 0.00 0.00 58 1013.3
20260506141540 56 62 1.7 10.4 0.00 0.00 0.00 56 1013.1
20260506140034 55 302 3.5 7.0 0.00 0.00 0.00 57 1013.2
20260506134530 55 319 2.6 10.4 0.00 0.00 0.00 57 1013.4
20260506133030 57 51 4.3 11.3 0.00 0.00 0.00 54 1013.2
20260506131529 55 42 2.6 8.7 0.00 0.00 0.00 56 1013.2
20260506130030 56 356 1.7 7.8 0.00 0.00 0.00 58 1013.4
20260506124529 55 70 3.5 7.8 0.00 0.00 0.00 57 1013.5
20260506123030 56 349 1.7 8.7 0.00 0.00 0.00 58 1013.5
20260506121530 55 15 2.6 7.8 0.00 0.00 0.00 57 1013.4
20260506120049 55 39 3.5 9.6 0.00 0.00 0.00 63 1013.5
20260506114534 54 302 2.6 9.6 0.00 0.00 0.00 63 1013.4
20260506113030 54 23 3.5 9.6 0.00 0.00 0.00 62 1013.5
20260506111531 54 344 3.5 7.8 0.00 0.00 0.00 61 1013.7
20260506110032 53 30 4.3 11.3 0.00 0.00 0.00 60 1013.7
20260506104539 53 294 3.5 11.3 0.00 0.00 0.00 60 1013.7
20260506103040 53 8 3.5 10.4 0.00 0.00 0.00 61 1013.6
20260506101532 52 304 2.6 7.0 0.00 0.00 0.00 65 1013.6
20260506100031 51 0 2.6 9.6 0.00 0.00 0.00 65 1013.6
20260506094530 51 33 4.3 8.7 0.00 0.00 0.00 65 1013.6
20260506093031 51 37 3.5 10.4 0.00 0.00 0.00 67 1013.5
20260506091530 50 322 2.6 8.7 0.00 0.00 0.00 70 1013.6
20260506090031 50 317 3.5 9.6 0.00 0.00 0.00 69 1013.6
20260506084606 49 4 1.7 7.8 0.00 0.00 0.00 73 1013.7
20260506083029 49 347 2.6 8.7 0.00 0.00 0.00 73 1013.7
20260506081540 48 359 3.5 8.7 0.00 0.00 0.00 75 1013.7
20260506073030 47 59 3.5 8.7 0.00 0.00 0.00 77 1013.6
20260506071534 48 30 2.6 7.8 0.00 0.00 0.00 77 1013.5
20260506061530 45 115 2.6 6.1 0.00 0.00 0.00 83 1013.3
20260506044536 45 48 0.9 6.1 0.00 0.00 0.00 85 1012.9
20260506043030 45 41 0.9 6.1 0.00 0.00 0.00 85 1012.8
20260506041530 46 47 0.9 5.2 0.00 0.00 0.00 85 1012.7
20260506040036 46 19 0.9 5.2 0.00 0.00 0.00 85 1012.7
20260506034533 47 0 1.7 5.2 0.00 0.00 0.00 85 1012.7
20260506033030 47 41 1.7 6.1 0.00 0.00 0.00 86 1012.7
20260506031539 47 321 0.9 3.5 0.00 0.00 0.00 86 1012.7
20260506030031 47 22 0.9 2.6 0.00 0.00 0.00 86 1012.7
20260506024533 47 36 0.9 3.5 0.00 0.00 0.00 85 1012.8
20260506023050 47 25 0.0 4.3 0.00 0.00 0.00 84 1012.7
20260506021552 47 0 0.9 6.1 0.00 0.00 0.00 83 1012.7
20260506020032 48 58 0.0 3.5 0.00 0.00 0.00 82 1012.9
20260506014532 48 34 0.0 5.2 0.00 0.00 0.00 81 1012.9
20260506013035 48 72 0.9 7.0 0.00 0.00 0.00 80 1012.9
20260506011531 49 67 0.9 7.8 0.00 0.00 0.00 80 1013.0
20260506010032 49 36 2.6 7.0 0.00 0.00 0.00 80 1013.1
20260506004534 49 81 2.6 7.8 0.00 0.00 0.00 81 1012.9
20260506003032 49 300 1.7 6.1 0.00 0.00 0.00 82 1013.0
20260506001532 50 312 1.7 5.2 0.00 0.00 0.00 82 1013.0
20260506000030 50 96 0.9 6.1 0.00 0.00 0.00 82 1013.0
20260505234532 50 345 0.9 4.3 0.00 0.00 0.00 82 1013.0
20260505233035 51 0 0.0 4.3 0.00 0.00 0.00 82 1013.1
20260505231546 51 0 1.7 6.1 0.00 0.00 0.00 80 1012.9
20260505230030 52 65 0.0 6.1 0.00 0.00 0.00 78 1012.9
20260505224532 52 34 1.7 5.2 0.00 0.00 0.00 77 1012.9
20260505223031 52 14 0.9 5.2 0.00 0.00 0.00 77 1012.7